Time;durP1;ratioP1;P1;durP2;ratioP2;P2;SDS_P1;SDS_P2;PMS_P1;PMS_P2;Temp;Humidity;BMP_temperature;BMP_pressure;BME280_temperature;BME280_humidity;BME280_pressure;Samples;Min_cycle;Max_cycle;Signal;HPM_P1;HPM_P2
2021/10/04 00:02:10;;;;;;;2.13;0.98;;;12.50;89.00;;;;;;5097386;28;20024;-73
2021/10/04 00:04:36;;;;;;;2.45;0.95;;;12.60;89.00;;;;;;5115702;28;20020;-73
2021/10/04 00:07:03;;;;;;;1.13;0.93;;;12.50;89.00;;;;;;5096413;28;20063;-74
2021/10/04 00:09:29;;;;;;;3.17;0.98;;;12.50;89.00;;;;;;5096140;28;20031;-74
2021/10/04 00:11:55;;;;;;;1.70;0.95;;;12.50;89.00;;;;;;5095818;28;20027;-74
2021/10/04 00:14:21;;;;;;;2.88;1.00;;;12.50;89.00;;;;;;5095928;28;20035;-73
2021/10/04 00:16:50;;;;;;;3.00;1.00;;;12.50;89.60;;;;;;5095501;28;20031;-73
2021/10/04 00:19:17;;;;;;;1.63;1.05;;;12.50;89.70;;;;;;5095858;28;20024;-74
2021/10/04 00:21:43;;;;;;;2.28;0.98;;;12.50;89.10;;;;;;5113887;28;20031;-74
2021/10/04 00:24:08;;;;;;;4.63;1.20;;;12.50;89.10;;;;;;5095800;28;20031;-73
2021/10/04 00:26:34;;;;;;;1.65;0.82;;;12.50;89.10;;;;;;5095723;28;20023;-74
2021/10/04 00:29:01;;;;;;;3.17;0.95;;;12.40;89.10;;;;;;5095704;28;20035;-74
2021/10/04 00:31:26;;;;;;;2.78;0.90;;;12.40;89.20;;;;;;5095663;28;20047;-74
2021/10/04 00:33:52;;;;;;;2.45;0.88;;;12.40;89.20;;;;;;5095603;28;20027;-74
2021/10/04 00:36:18;;;;;;;3.80;1.20;;;12.40;89.10;;;;;;5095533;28;20031;-75
2021/10/04 00:38:44;;;;;;;1.30;0.70;;;12.40;89.20;;;;;;5095606;28;20050;-74
2021/10/04 00:41:09;;;;;;;1.33;0.85;;;12.40;89.20;;;;;;5095445;28;20100;-74
2021/10/04 00:46:57;;;;;;;2.65;1.08;;;12.40;89.20;;;;;;5113522;28;20513;-74
2021/10/04 00:49:23;;;;;;;1.52;1.08;;;12.40;89.20;;;;;;5095349;28;20019;-74
2021/10/04 00:51:49;;;;;;;2.80;0.90;;;12.40;89.20;;;;;;5095416;28;20088;-74
2021/10/04 00:54:15;;;;;;;2.40;1.15;;;12.40;89.20;;;;;;5095194;28;20126;-74
2021/10/04 00:56:41;;;;;;;1.35;1.00;;;12.40;89.20;;;;;;5095330;28;20028;-74
2021/10/04 00:59:06;;;;;;;1.10;1.00;;;12.40;89.20;;;;;;5113454;28;20034;-74
2021/10/04 01:01:32;;;;;;;1.92;1.05;;;12.40;89.20;;;;;;5113472;28;20081;-74
2021/10/04 01:03:59;;;;;;;4.45;1.52;;;12.40;89.20;;;;;;5095284;28;20027;-74
2021/10/04 01:06:27;;;;;;;2.13;1.10;;;12.40;89.20;;;;;;5113309;28;20035;-74
2021/10/04 01:08:53;;;;;;;3.25;1.05;;;12.40;89.20;;;;;;5095126;28;20472;-74
2021/10/04 01:14:40;;;;;;;1.73;0.90;;;12.40;89.30;;;;;;5113603;28;20206;-75
2021/10/04 01:17:06;;;;;;;1.92;0.85;;;12.40;89.30;;;;;;5092407;28;20463;-73
2021/10/04 01:19:32;;;;;;;3.03;1.08;;;12.40;89.30;;;;;;5095024;28;20038;-73
2021/10/04 01:21:57;;;;;;;1.27;0.85;;;12.40;89.30;;;;;;5094979;28;20501;-73
2021/10/04 01:24:23;;;;;;;1.30;1.05;;;12.40;89.30;;;;;;5094841;28;20027;-73
2021/10/04 01:26:49;;;;;;;2.13;1.05;;;12.40;89.30;;;;;;5094905;28;20444;-74
2021/10/04 01:29:16;;;;;;;2.83;0.85;;;12.40;89.30;;;;;;5096276;28;20063;-73
2021/10/04 01:31:42;;;;;;;1.17;0.80;;;12.40;89.30;;;;;;5099050;28;20061;-74
2021/10/04 01:34:08;;;;;;;2.50;0.80;;;12.40;89.20;;;;;;5098916;28;20027;-74
2021/10/04 01:36:33;;;;;;;2.08;0.80;;;12.40;89.30;;;;;;5117332;28;20028;-74
2021/10/04 01:38:59;;;;;;;2.22;0.80;;;12.40;89.20;;;;;;5117073;28;20173;-74
2021/10/04 01:41:26;;;;;;;1.95;0.85;;;12.40;89.20;;;;;;5098872;28;20028;-74
2021/10/04 01:43:53;;;;;;;1.13;0.70;;;12.40;89.20;;;;;;5098808;28;20035;-74
2021/10/04 01:46:19;;;;;;;1.48;0.75;;;12.40;89.20;;;;;;5116812;28;20051;-74
2021/10/04 01:48:45;;;;;;;2.10;0.93;;;12.40;89.30;;;;;;5117192;28;20032;-74
2021/10/04 01:51:11;;;;;;;1.35;0.80;;;12.40;89.30;;;;;;5098730;28;20024;-74
2021/10/04 01:53:37;;;;;;;2.30;0.80;;;12.40;89.20;;;;;;5098543;28;20057;-74
2021/10/04 01:56:03;;;;;;;1.80;0.85;;;12.40;89.20;;;;;;5098622;28;20040;-73
2021/10/04 01:58:29;;;;;;;3.00;0.88;;;12.40;89.20;;;;;;5098323;28;20027;-74
2021/10/04 02:00:56;;;;;;;1.95;0.80;;;12.40;89.20;;;;;;5116774;28;20032;-74
2021/10/04 02:03:22;;;;;;;2.35;0.93;;;12.40;89.20;;;;;;5116746;28;20024;-74
2021/10/04 02:05:48;;;;;;;1.20;0.68;;;12.40;89.10;;;;;;5098322;28;20131;-74
2021/10/04 02:08:13;;;;;;;2.08;0.85;;;12.40;89.10;;;;;;5098511;28;20458;-74
2021/10/04 02:10:41;;;;;;;1.67;0.63;;;12.40;89.10;;;;;;5116594;28;20036;-74
2021/10/04 02:13:08;;;;;;;0.85;0.50;;;12.40;89.00;;;;;;5116542;28;20027;-74
2021/10/04 02:15:35;;;;;;;1.90;0.80;;;12.40;89.00;;;;;;5098243;28;20122;-74
2021/10/04 02:18:01;;;;;;;0.98;0.88;;;12.40;89.00;;;;;;5116472;28;20028;-73
2021/10/04 02:20:30;;;;;;;1.95;0.88;;;12.40;89.00;;;;;;5116505;28;20161;-74
2021/10/04 02:22:56;;;;;;;2.33;0.90;;;12.40;88.90;;;;;;5116943;28;20107;-74
2021/10/04 02:25:24;;;;;;;2.47;0.80;;;12.40;88.90;;;;;;5098692;28;20027;-74
2021/10/04 02:27:49;;;;;;;2.60;1.00;;;12.40;88.80;;;;;;5117230;28;20088;-74
2021/10/04 02:30:19;;;;;;;1.92;0.70;;;12.40;88.80;;;;;;5098825;28;20032;-73
2021/10/04 02:32:45;;;;;;;2.05;0.88;;;12.40;88.80;;;;;;5098543;28;20604;-74
2021/10/04 02:35:11;;;;;;;0.77;0.70;;;12.40;88.80;;;;;;5116384;28;20418;-74
2021/10/04 02:37:37;;;;;;;1.50;1.00;;;12.40;88.80;;;;;;5097627;28;20081;-73
2021/10/04 02:40:05;;;;;;;1.63;0.70;;;12.40;88.80;;;;;;5115622;28;20032;-74
2021/10/04 02:42:30;;;;;;;2.78;0.90;;;12.40;88.80;;;;;;5115962;28;20059;-74
2021/10/04 02:44:56;;;;;;;2.70;0.93;;;12.40;88.80;;;;;;5097296;28;20386;-74
2021/10/04 02:47:21;;;;;;;2.95;0.75;;;12.40;88.80;;;;;;5115675;28;20044;-74
2021/10/04 02:49:47;;;;;;;2.15;1.00;;;12.30;88.80;;;;;;5115854;28;20051;-74
2021/10/04 02:52:16;;;;;;;2.83;0.80;;;12.30;88.80;;;;;;5097498;28;20027;-74
2021/10/04 02:54:42;;;;;;;1.67;0.80;;;12.30;88.80;;;;;;5097420;28;20024;-74
2021/10/04 02:57:07;;;;;;;1.63;0.90;;;12.30;88.90;;;;;;5115719;28;20055;-73
2021/10/04 02:59:33;;;;;;;2.65;1.00;;;12.30;88.90;;;;;;5097620;28;20028;-73
2021/10/04 03:01:59;;;;;;;1.27;0.80;;;12.30;88.80;;;;;;5115599;28;20114;-74
2021/10/04 03:04:24;;;;;;;0.80;0.70;;;12.30;88.80;;;;;;5097310;28;20483;-74
2021/10/04 03:06:50;;;;;;;1.85;0.73;;;12.30;88.80;;;;;;5097180;28;20023;-73
2021/10/04 03:09:16;;;;;;;2.45;0.90;;;12.30;88.80;;;;;;5096979;28;20395;-74
2021/10/04 03:11:42;;;;;;;1.50;0.82;;;12.30;88.80;;;;;;5115430;28;20533;-74
2021/10/04 03:14:08;;;;;;;4.32;0.90;;;12.30;88.70;;;;;;5097111;28;20541;-74
2021/10/04 03:16:34;;;;;;;1.27;0.80;;;12.30;88.70;;;;;;5115188;28;20036;-74
2021/10/04 03:18:59;;;;;;;1.77;0.80;;;12.30;88.60;;;;;;5096890;28;20518;-74
2021/10/04 03:21:25;;;;;;;3.03;0.80;;;12.30;88.60;;;;;;5097001;28;20067;-73
2021/10/04 03:23:51;;;;;;;2.15;0.98;;;12.30;88.60;;;;;;5115093;28;20027;-74
2021/10/04 03:26:16;;;;;;;2.15;0.82;;;12.40;88.60;;;;;;5115241;28;20019;-74
2021/10/04 03:28:42;;;;;;;2.42;0.70;;;12.40;88.60;;;;;;5096752;28;20026;-74
2021/10/04 03:31:08;;;;;;;1.73;0.80;;;12.40;88.60;;;;;;5096603;28;20031;-74
2021/10/04 03:33:33;;;;;;;1.05;0.60;;;12.40;88.50;;;;;;5096617;28;20042;-74
2021/10/04 03:35:59;;;;;;;3.70;0.95;;;12.40;88.50;;;;;;5096456;28;20050;-74
2021/10/04 03:38:25;;;;;;;2.20;0.75;;;12.40;88.50;;;;;;5096573;28;20434;-74
2021/10/04 03:40:50;;;;;;;1.45;0.70;;;12.40;88.40;;;;;;5114896;28;20150;-74
2021/10/04 03:43:16;;;;;;;1.00;0.65;;;12.40;88.30;;;;;;5114669;28;20539;-74
2021/10/04 03:45:42;;;;;;;2.42;0.80;;;12.40;88.30;;;;;;5114533;28;20062;-73
2021/10/04 03:48:08;;;;;;;1.85;0.85;;;12.40;88.20;;;;;;5096295;28;20032;-74
2021/10/04 03:50:33;;;;;;;1.40;0.70;;;12.40;88.20;;;;;;5096393;28;20028;-74
2021/10/04 03:52:59;;;;;;;2.67;0.85;;;12.40;88.20;;;;;;5095401;28;20050;-74
2021/10/04 03:55:24;;;;;;;1.27;0.60;;;12.40;88.10;;;;;;5096256;28;20089;-74
2021/10/04 03:57:50;;;;;;;1.00;0.70;;;12.40;88.10;;;;;;5096171;28;20131;-74
2021/10/04 04:00:18;;;;;;;1.55;0.88;;;12.50;88.20;;;;;;5096251;28;20024;-74
2021/10/04 04:02:45;;;;;;;2.03;0.80;;;12.40;88.10;;;;;;5114381;28;20027;-74
2021/10/04 04:05:10;;;;;;;1.65;0.70;;;12.50;88.10;;;;;;5096031;28;20503;-74
2021/10/04 04:07:37;;;;;;;2.05;0.73;;;12.40;88.00;;;;;;5096080;28;20051;-74
2021/10/04 04:10:04;;;;;;;2.13;0.75;;;12.50;88.10;;;;;;5114286;28;20019;-74
2021/10/04 04:12:30;;;;;;;0.95;0.52;;;12.50;88.10;;;;;;5095937;28;20020;-74
2021/10/04 04:14:56;;;;;;;1.90;0.82;;;12.50;88.00;;;;;;5095966;28;20034;-74
2021/10/04 04:17:22;;;;;;;1.40;0.90;;;12.50;88.00;;;;;;5095851;28;20012;-74
2021/10/04 04:19:47;;;;;;;2.45;0.80;;;12.50;88.00;;;;;;5095785;28;20028;-74
2021/10/04 04:22:13;;;;;;;3.55;0.80;;;12.50;88.00;;;;;;5095840;28;20019;-74
2021/10/04 04:24:38;;;;;;;3.38;0.70;;;12.50;87.90;;;;;;5095717;28;20031;-74
2021/10/04 04:27:06;;;;;;;1.50;0.80;;;12.50;87.90;;;;;;5095804;28;20008;-74
2021/10/04 04:29:36;;;;;;;3.75;0.85;;;12.50;87.80;;;;;;5095628;28;20020;-74
2021/10/04 04:32:04;;;;;;;3.55;1.05;;;12.50;87.80;;;;;;5095462;28;20152;-74
2021/10/04 04:34:30;;;;;;;2.20;0.73;;;12.50;87.70;;;;;;5095394;28;20032;-74
2021/10/04 04:36:55;;;;;;;2.55;0.90;;;12.50;87.70;;;;;;5114024;28;20024;-74
2021/10/04 04:39:21;;;;;;;2.53;1.05;;;12.50;87.70;;;;;;5095433;28;20457;-74
2021/10/04 04:41:46;;;;;;;2.05;0.90;;;12.50;87.70;;;;;;5113567;28;20107;-74
2021/10/04 04:44:12;;;;;;;0.90;0.70;;;12.50;87.70;;;;;;5095490;28;20023;-74
2021/10/04 04:46:37;;;;;;;1.25;0.60;;;12.50;87.70;;;;;;5095258;28;20394;-74
2021/10/04 04:49:03;;;;;;;1.73;0.60;;;12.50;87.70;;;;;;5113614;28;20035;-74
2021/10/04 04:51:28;;;;;;;1.17;0.75;;;12.50;87.60;;;;;;5095253;28;20028;-74
2021/10/04 04:53:54;;;;;;;2.38;0.80;;;12.50;87.60;;;;;;5095199;28;20026;-74
2021/10/04 04:56:20;;;;;;;2.95;0.75;;;12.50;87.60;;;;;;5095391;28;20061;-74
2021/10/04 04:58:45;;;;;;;2.17;0.55;;;12.50;87.60;;;;;;5113308;28;20081;-74
2021/10/04 05:01:11;;;;;;;0.98;0.70;;;12.50;87.60;;;;;;5095229;28;20069;-74
2021/10/04 05:03:36;;;;;;;3.63;0.70;;;12.50;87.60;;;;;;5095039;28;20027;-74
2021/10/04 05:06:02;;;;;;;1.55;0.90;;;12.50;87.60;;;;;;5095164;28;20019;-74
2021/10/04 05:08:28;;;;;;;2.38;0.85;;;12.50;87.50;;;;;;5095078;28;20363;-74
2021/10/04 05:10:53;;;;;;;2.00;0.82;;;12.50;87.50;;;;;;5095280;28;20490;-73
2021/10/04 05:13:19;;;;;;;2.17;0.80;;;12.50;87.60;;;;;;5113153;28;20023;-73
2021/10/04 05:15:45;;;;;;;2.35;1.00;;;12.50;87.50;;;;;;5094906;28;20028;-73
2021/10/04 05:18:10;;;;;;;2.83;0.75;;;12.50;87.50;;;;;;5094798;28;20032;-74
2021/10/04 05:20:36;;;;;;;2.67;0.82;;;12.50;87.60;;;;;;5094867;28;20489;-74
2021/10/04 05:23:02;;;;;;;1.02;0.65;;;12.50;87.60;;;;;;5094920;28;20051;-73
2021/10/04 05:25:27;;;;;;;2.22;0.80;;;12.50;87.50;;;;;;5112935;28;20024;-74
2021/10/04 05:27:53;;;;;;;2.55;0.90;;;12.50;87.50;;;;;;5113022;28;20020;-73
2021/10/04 05:30:19;;;;;;;4.30;0.93;;;12.50;87.50;;;;;;5112961;28;20079;-74
2021/10/04 05:32:44;;;;;;;2.15;0.70;;;12.50;87.50;;;;;;5094653;28;20042;-74
2021/10/04 05:35:11;;;;;;;1.70;0.80;;;12.50;87.50;;;;;;5094769;28;20036;-74
2021/10/04 05:37:37;;;;;;;1.38;0.77;;;12.50;87.50;;;;;;5094642;28;20330;-74
2021/10/04 05:40:04;;;;;;;1.00;0.70;;;12.50;87.50;;;;;;5094579;28;20027;-74
2021/10/04 05:42:32;;;;;;;3.67;0.90;;;12.40;87.40;;;;;;5112816;28;20441;-74
2021/10/04 05:45:03;;;;;;;3.00;0.80;;;12.50;87.50;;;;;;5094506;28;20510;-74
2021/10/04 05:47:29;;;;;;;2.00;1.10;;;12.40;87.50;;;;;;5094335;28;20185;-74
2021/10/04 05:53:17;;;;;;;1.60;0.70;;;12.50;87.50;;;;;;5113208;28;20383;-75
2021/10/04 05:55:45;;;;;;;3.20;0.80;;;12.40;87.40;;;;;;5112911;28;20106;-74
2021/10/04 05:58:10;;;;;;;1.77;0.90;;;12.40;87.40;;;;;;5094493;28;20122;-74
2021/10/04 06:00:36;;;;;;;5.30;1.02;;;12.50;87.50;;;;;;5094533;28;20116;-74
2021/10/04 06:03:02;;;;;;;1.05;0.70;;;12.50;87.40;;;;;;5094609;28;20034;-74
2021/10/04 06:05:27;;;;;;;1.95;0.80;;;12.50;87.50;;;;;;5094580;28;20402;-75
2021/10/04 06:07:53;;;;;;;1.95;0.88;;;12.50;87.40;;;;;;5094518;28;20072;-75
2021/10/04 06:13:41;;;;;;;2.85;0.90;;;12.50;87.30;;;;;;5113141;28;20026;-75
2021/10/04 06:16:07;;;;;;;2.10;0.70;;;12.50;87.30;;;;;;5097068;28;20020;-74
2021/10/04 06:18:32;;;;;;;1.67;0.82;;;12.50;87.90;;;;;;5098366;28;20027;-75
2021/10/04 06:20:58;;;;;;;1.33;0.70;;;12.50;87.30;;;;;;5116492;28;20095;-75
2021/10/04 06:23:23;;;;;;;2.45;0.80;;;12.50;87.30;;;;;;5098218;28;20019;-75
2021/10/04 06:25:49;;;;;;;1.98;0.80;;;12.50;87.30;;;;;;5116254;28;20475;-75
2021/10/04 06:28:15;;;;;;;3.67;1.00;;;12.50;87.20;;;;;;5097994;28;20068;-75
2021/10/04 06:30:40;;;;;;;0.98;0.70;;;12.60;87.30;;;;;;5097920;28;20466;-75
2021/10/04 06:33:06;;;;;;;2.53;0.80;;;12.60;87.20;;;;;;5112880;28;20479;-74
2021/10/04 06:35:32;;;;;;;3.08;0.70;;;12.60;87.20;;;;;;5097961;28;20022;-75
2021/10/04 06:37:57;;;;;;;2.75;0.90;;;12.60;87.20;;;;;;5097772;28;20024;-75
2021/10/04 06:40:23;;;;;;;2.55;0.90;;;12.60;87.10;;;;;;5097734;28;20012;-75
2021/10/04 06:42:48;;;;;;;0.80;0.80;;;12.60;87.10;;;;;;5097679;28;20019;-74
2021/10/04 06:45:15;;;;;;;3.20;0.90;;;12.60;87.20;;;;;;5097380;28;20016;-75
2021/10/04 06:47:41;;;;;;;1.90;0.60;;;12.60;87.00;;;;;;5097303;28;20127;-75
2021/10/04 06:50:09;;;;;;;2.58;0.70;;;12.60;87.00;;;;;;5097506;28;20077;-75
2021/10/04 06:52:36;;;;;;;2.40;0.80;;;12.60;87.00;;;;;;5097446;28;20036;-75
2021/10/04 06:55:03;;;;;;;2.60;1.23;;;12.60;87.50;;;;;;5097448;28;20031;-76
2021/10/04 06:57:29;;;;;;;1.92;0.80;;;12.70;86.90;;;;;;5115776;28;20038;-74
2021/10/04 06:59:55;;;;;;;1.85;0.70;;;12.70;86.80;;;;;;5097344;28;20076;-75
2021/10/04 07:02:20;;;;;;;1.52;1.00;;;12.70;86.80;;;;;;5097608;28;20453;-75
2021/10/04 07:04:46;;;;;;;1.48;0.90;;;12.70;86.70;;;;;;5115505;28;20031;-75
2021/10/04 07:07:15;;;;;;;1.27;0.93;;;12.80;86.70;;;;;;5097236;28;20015;-75
2021/10/04 07:09:41;;;;;;;2.97;0.85;;;12.80;86.70;;;;;;5097026;28;20027;-75
2021/10/04 07:12:08;;;;;;;0.75;0.70;;;12.80;86.60;;;;;;5097285;28;20052;-74
2021/10/04 07:14:33;;;;;;;2.38;0.90;;;12.80;86.50;;;;;;5072538;28;20036;-75
2021/10/04 07:16:59;;;;;;;1.95;1.00;;;12.80;86.40;;;;;;5072533;28;20071;-74
2021/10/04 07:19:25;;;;;;;3.55;0.98;;;12.90;86.40;;;;;;5072607;28;20067;-75
2021/10/04 07:21:53;;;;;;;2.50;1.63;;;12.90;86.40;;;;;;5072462;28;20078;-74
2021/10/04 07:24:20;;;;;;;2.63;1.10;;;12.80;86.40;;;;;;5072335;28;20526;-74
2021/10/04 07:26:47;;;;;;;2.63;1.00;;;12.80;86.40;;;;;;5071176;28;20028;-75
2021/10/04 07:29:14;;;;;;;2.67;0.73;;;12.80;86.40;;;;;;5072483;28;20037;-77
2021/10/04 07:31:39;;;;;;;4.30;0.90;;;12.80;86.50;;;;;;5073282;28;20043;-77
2021/10/04 07:34:06;;;;;;;2.55;1.00;;;12.80;86.50;;;;;;5072192;28;20037;-77
2021/10/04 07:36:32;;;;;;;3.45;1.10;;;12.80;86.60;;;;;;5072286;28;20119;-75
2021/10/04 07:38:58;;;;;;;2.58;0.90;;;12.70;86.50;;;;;;5072068;28;20064;-76
2021/10/04 07:41:23;;;;;;;2.45;0.98;;;12.70;86.50;;;;;;5072361;28;20048;-73
2021/10/04 07:43:49;;;;;;;2.63;0.88;;;12.80;86.40;;;;;;5072172;28;20107;-74
2021/10/04 07:46:15;;;;;;;5.18;1.15;;;12.80;86.40;;;;;;5091771;28;20043;-75
2021/10/04 07:48:40;;;;;;;2.70;0.82;;;12.80;86.30;;;;;;5115390;28;20110;-75
2021/10/04 07:51:07;;;;;;;1.75;0.80;;;12.90;86.30;;;;;;5097969;28;20462;-74
2021/10/04 07:53:33;;;;;;;4.45;1.13;;;12.90;86.20;;;;;;5114861;28;20501;-76
2021/10/04 07:55:59;;;;;;;2.40;1.02;;;12.80;86.10;;;;;;5096399;28;20015;-74
2021/10/04 07:58:26;;;;;;;2.95;1.30;;;12.80;86.10;;;;;;5096625;28;20072;-77
2021/10/04 08:00:51;;;;;;;2.30;0.90;;;12.80;86.10;;;;;;5096711;28;20487;-75
2021/10/04 08:03:17;;;;;;;3.58;1.10;;;12.80;86.10;;;;;;5096124;28;20024;-75
2021/10/04 08:05:43;;;;;;;1.67;0.73;;;12.80;86.10;;;;;;5096270;28;20475;-75
2021/10/04 08:08:08;;;;;;;3.47;1.52;;;12.80;86.20;;;;;;5114280;28;20117;-74
2021/10/04 08:10:34;;;;;;;1.95;1.20;;;12.80;86.20;;;;;;5096094;28;20114;-74
2021/10/04 08:13:00;;;;;;;3.10;1.08;;;12.80;86.30;;;;;;5096263;28;20548;-75
2021/10/04 08:15:26;;;;;;;4.18;1.33;;;12.80;86.20;;;;;;5096218;28;20051;-74
2021/10/04 08:17:52;;;;;;;2.20;0.95;;;12.90;86.20;;;;;;5096001;28;20028;-74
2021/10/04 08:20:18;;;;;;;3.83;1.30;;;12.90;86.10;;;;;;5114542;28;20084;-75
2021/10/04 08:23:13;;;;;;;3.83;1.08;;;13.00;86.00;;;;;;5090634;28;20140;-76
2021/10/04 08:25:39;;;;;;;2.35;1.00;;;13.10;85.80;;;;;;5117426;28;20074;-75
2021/10/04 08:28:05;;;;;;;3.13;1.05;;;13.20;85.80;;;;;;5097801;28;20380;-75
2021/10/04 08:30:33;;;;;;;2.05;0.90;;;13.20;85.60;;;;;;5096005;28;20054;-74
2021/10/04 08:32:59;;;;;;;3.72;1.23;;;13.30;85.60;;;;;;5096224;28;20032;-76
2021/10/04 08:35:25;;;;;;;2.72;1.05;;;13.30;85.50;;;;;;5095621;28;20122;-76
2021/10/04 08:37:51;;;;;;;2.17;1.00;;;13.40;85.40;;;;;;5095087;28;20384;-75
2021/10/04 08:40:17;;;;;;;5.50;1.13;;;13.40;85.30;;;;;;5095433;28;20122;-75
2021/10/04 08:42:45;;;;;;;1.30;0.70;;;13.50;85.10;;;;;;5095744;28;20073;-74
2021/10/04 08:45:11;;;;;;;4.32;1.00;;;13.60;85.00;;;;;;5115373;28;20031;-75
2021/10/04 08:47:38;;;;;;;1.83;0.77;;;13.60;84.90;;;;;;5074293;28;20121;-75
2021/10/04 08:50:10;;;;;;;2.10;0.80;;;13.70;84.80;;;;;;5055931;28;20041;-76
2021/10/04 08:52:37;;;;;;;5.05;1.10;;;13.70;84.60;;;;;;5072130;28;20044;-75
2021/10/04 08:55:04;;;;;;;2.67;0.70;;;13.80;84.50;;;;;;5054767;28;20051;-76
2021/10/04 08:57:29;;;;;;;4.57;1.20;;;13.80;84.30;;;;;;5072535;28;20120;-76
2021/10/04 08:59:55;;;;;;;5.93;1.13;;;13.90;84.00;;;;;;5056209;28;20539;-75
2021/10/04 09:02:31;;;;;;;2.67;1.08;;;13.90;83.80;;;;;;5055532;28;20024;-75
2021/10/04 09:05:08;;;;;;;2.05;1.20;;;14.00;83.80;;;;;;5071036;28;20037;-74
2021/10/04 09:07:53;;;;;;;2.30;0.90;;;14.00;83.70;;;;;;5054586;28;20556;-75
2021/10/04 09:10:25;;;;;;;3.92;0.90;;;14.10;84.30;;;;;;5072139;28;20115;-78
2021/10/04 09:12:52;;;;;;;3.45;1.00;;;14.10;83.70;;;;;;5053928;28;20037;-77
2021/10/04 09:15:24;;;;;;;2.65;1.10;;;14.20;83.70;;;;;;5053876;28;20476;-76
2021/10/04 09:17:50;;;;;;;2.75;0.85;;;14.20;83.50;;;;;;5053866;28;20136;-75
2021/10/04 09:20:17;;;;;;;4.32;1.00;;;14.30;83.30;;;;;;5070628;28;20039;-77
2021/10/04 09:22:43;;;;;;;2.75;0.98;;;14.30;83.10;;;;;;5070579;28;20060;-77
2021/10/04 09:25:08;;;;;;;1.95;0.80;;;14.40;82.80;;;;;;5093717;28;20120;-78
2021/10/04 09:27:37;;;;;;;3.05;1.10;;;14.40;82.70;;;;;;5094874;28;20030;-77
2021/10/04 09:30:05;;;;;;;1.70;0.88;;;14.40;82.60;;;;;;5094997;28;20070;-79
2021/10/04 09:32:36;;;;;;;5.30;0.82;;;14.50;82.50;;;;;;5094981;28;20376;-78
2021/10/04 09:35:14;;;;;;;3.20;0.93;;;14.50;82.40;;;;;;5095098;28;20028;-79
2021/10/04 09:37:40;;;;;;;3.00;1.05;;;14.60;82.40;;;;;;5095427;28;20032;-78
2021/10/04 09:40:28;;;;;;;2.15;0.80;;;14.70;82.30;;;;;;5094794;28;20020;-78
2021/10/04 09:42:54;;;;;;;3.45;1.08;;;14.70;82.00;;;;;;5095680;28;20019;-79
2021/10/04 09:45:20;;;;;;;3.53;1.17;;;14.70;81.90;;;;;;5094686;28;20400;-79
2021/10/04 09:47:46;;;;;;;2.42;1.02;;;14.80;81.80;;;;;;5112898;28;20405;-78
2021/10/04 09:50:27;;;;;;;2.65;0.85;;;14.80;81.70;;;;;;5095950;28;20028;-78
2021/10/04 09:52:58;;;;;;;2.17;0.93;;;14.90;81.50;;;;;;5098783;28;20114;-78
2021/10/04 09:55:30;;;;;;;1.27;0.65;;;15.00;81.40;;;;;;5098673;28;20032;-77
2021/10/04 09:57:59;;;;;;;4.18;1.58;;;15.10;81.30;;;;;;5098774;28;20160;-80
2021/10/04 10:00:27;;;;;;;3.05;0.80;;;15.10;80.90;;;;;;5098530;28;20067;-80
2021/10/04 10:02:56;;;;;;;2.97;0.85;;;15.20;80.80;;;;;;5098417;28;20028;-78
2021/10/04 10:05:27;;;;;;;4.25;1.00;;;15.20;80.50;;;;;;5098509;28;20024;-79
2021/10/04 10:07:54;;;;;;;3.92;0.93;;;15.30;80.30;;;;;;5098239;28;20027;-77
2021/10/04 10:10:22;;;;;;;2.78;0.82;;;15.40;80.20;;;;;;5098459;28;20484;-84
2021/10/04 10:12:48;;;;;;;1.95;1.00;;;15.40;80.00;;;;;;5098446;28;20031;-77
2021/10/04 10:15:24;;;;;;;1.88;0.60;;;15.50;79.80;;;;;;5098266;28;20032;-78
2021/10/04 10:17:57;;;;;;;4.32;0.80;;;15.50;79.60;;;;;;5116375;28;20076;-80
2021/10/04 10:20:23;;;;;;;2.00;0.65;;;15.50;79.50;;;;;;5097967;28;20038;-79
2021/10/04 10:22:53;;;;;;;2.55;0.88;;;15.60;79.40;;;;;;5098167;28;20032;-84
2021/10/04 10:25:46;;;;;;;4.18;0.88;;;15.60;79.00;;;;;;5116278;28;20027;-80
2021/10/04 10:28:33;;;;;;;5.28;0.90;;;15.70;78.70;;;;;;5111731;28;20039;-79
2021/10/04 10:31:00;;;;;;;4.10;0.90;;;15.70;78.60;;;;;;5097966;28;20031;-78
2021/10/04 10:33:50;;;;;;;3.53;1.00;;;15.80;78.60;;;;;;5097722;28;20023;-79
2021/10/04 10:36:18;;;;;;;1.77;0.82;;;15.90;78.50;;;;;;5095081;28;20039;-80
2021/10/04 10:42:15;;;;;;;3.00;0.95;;;16.00;78.20;;;;;;5116386;28;20506;-79
2021/10/04 10:44:56;;;;;;;2.35;0.80;;;16.10;78.00;;;;;;5116127;28;20123;-80
2021/10/04 10:47:37;;;;;;;2.67;0.60;;;16.10;77.90;;;;;;5115986;28;20513;-79
2021/10/04 10:50:15;;;;;;;1.40;0.70;;;16.10;77.80;;;;;;5097414;28;20487;-78
2021/10/04 10:52:56;;;;;;;2.25;0.80;;;16.10;77.50;;;;;;5115873;28;20031;-79
2021/10/04 10:55:23;;;;;;;3.08;0.85;;;16.20;77.40;;;;;;5093103;28;20492;-78
2021/10/04 10:57:51;;;;;;;2.17;0.65;;;16.20;77.40;;;;;;5093123;28;20039;-78
2021/10/04 11:00:16;;;;;;;4.15;0.90;;;16.30;76.70;;;;;;5092998;28;20510;-78
2021/10/04 11:03:01;;;;;;;2.95;0.60;;;16.30;76.40;;;;;;5092946;28;20052;-75
2021/10/04 11:05:38;;;;;;;1.42;0.60;;;16.40;76.30;;;;;;5076058;28;20036;-78
2021/10/04 11:08:09;;;;;;;2.17;0.68;;;16.40;76.20;;;;;;5092754;28;20035;-79
2021/10/04 11:10:48;;;;;;;1.17;0.80;;;16.40;76.10;;;;;;5075958;28;20044;-77
2021/10/04 11:13:27;;;;;;;3.13;0.70;;;16.40;76.50;;;;;;5092879;28;20039;-77
2021/10/04 11:15:56;;;;;;;3.05;0.65;;;16.50;75.60;;;;;;5092920;28;20495;-79
2021/10/04 11:18:22;;;;;;;1.13;0.50;;;16.60;75.30;;;;;;5075757;28;20024;-78
2021/10/04 11:24:10;;;;;;;2.35;0.57;;;16.70;74.70;;;;;;5092978;28;20054;-77
2021/10/04 11:26:39;;;;;;;3.08;0.73;;;16.80;74.70;;;;;;5106110;28;20071;-77
2021/10/04 11:29:06;;;;;;;2.00;0.68;;;16.80;74.40;;;;;;5096797;28;20122;-79
2021/10/04 11:31:40;;;;;;;3.30;0.60;;;16.80;74.30;;;;;;5115437;28;20027;-78
2021/10/04 11:34:10;;;;;;;4.80;1.23;;;16.90;74.00;;;;;;5113033;28;20122;-79
2021/10/04 11:36:40;;;;;;;1.88;0.63;;;17.00;73.50;;;;;;5096791;28;20372;-79
2021/10/04 11:39:16;;;;;;;3.67;0.98;;;17.00;72.90;;;;;;5114899;28;20031;-79
2021/10/04 11:41:51;;;;;;;3.13;0.93;;;17.00;72.20;;;;;;5093807;28;20024;-79
2021/10/04 11:44:20;;;;;;;2.25;0.93;;;17.00;72.40;;;;;;5096658;28;20034;-78
2021/10/04 11:46:59;;;;;;;5.72;0.95;;;17.00;72.10;;;;;;5096355;28;20612;-79
2021/10/04 11:49:28;;;;;;;5.10;1.20;;;17.00;70.60;;;;;;5096481;28;20012;-79
2021/10/04 11:51:57;;;;;;;4.03;0.80;;;17.00;70.90;;;;;;5096510;28;20023;-78
2021/10/04 11:54:42;;;;;;;3.28;0.60;;;16.90;70.20;;;;;;5096435;28;20031;-78
2021/10/04 11:57:19;;;;;;;3.33;0.80;;;16.80;70.60;;;;;;5114892;28;20016;-79
2021/10/04 11:59:55;;;;;;;3.78;1.00;;;16.80;71.00;;;;;;5096330;28;20039;-78
2021/10/04 12:02:29;;;;;;;2.28;0.80;;;16.90;70.90;;;;;;5096298;28;20035;-79
2021/10/04 12:05:21;;;;;;;3.20;1.08;;;17.00;70.80;;;;;;5093287;28;20126;-78
2021/10/04 12:08:07;;;;;;;4.20;0.90;;;17.10;70.60;;;;;;5096210;28;20055;-79
2021/10/04 12:10:59;;;;;;;2.50;1.05;;;17.30;70.10;;;;;;5114361;28;20028;-79
2021/10/04 12:13:30;;;;;;;3.45;1.67;;;17.30;69.50;;;;;;5110420;28;20088;-80
2021/10/04 12:16:04;;;;;;;3.55;0.90;;;17.40;69.30;;;;;;5095934;28;20031;-78
2021/10/04 12:18:31;;;;;;;4.10;0.80;;;17.50;69.00;;;;;;5093688;28;20032;-78
2021/10/04 12:21:23;;;;;;;5.25;1.00;;;17.60;68.80;;;;;;5114287;28;20024;-79
2021/10/04 12:24:10;;;;;;;4.70;0.98;;;17.60;68.20;;;;;;5095883;28;20044;-78
2021/10/04 12:27:09;;;;;;;1.67;0.57;;;17.60;67.70;;;;;;5095810;28;20038;-79
2021/10/04 12:30:12;;;;;;;4.22;1.17;;;17.80;67.00;;;;;;5095169;28;20151;-79
2021/10/04 12:32:49;;;;;;;3.85;0.88;;;17.80;66.60;;;;;;5034603;28;20076;-79
2021/10/04 12:35:23;;;;;;;3.72;1.08;;;17.90;66.70;;;;;;5106804;28;20081;-77
2021/10/04 12:38:00;;;;;;;2.63;0.80;;;18.00;66.70;;;;;;5096055;28;20027;-78
2021/10/04 12:40:40;;;;;;;5.15;0.93;;;17.90;66.30;;;;;;5092866;28;20044;-78
2021/10/04 12:43:06;;;;;;;4.72;1.08;;;17.90;66.40;;;;;;5095550;28;20043;-79
2021/10/04 12:45:34;;;;;;;2.25;0.95;;;17.90;66.60;;;;;;5113470;28;20023;-78
2021/10/04 12:48:07;;;;;;;1.60;0.70;;;17.90;66.60;;;;;;5095276;28;20513;-80
2021/10/04 12:50:40;;;;;;;3.65;0.80;;;17.90;66.50;;;;;;5095593;28;20498;-80
2021/10/04 12:53:23;;;;;;;5.78;0.90;;;17.80;66.60;;;;;;5092540;28;20513;-78
2021/10/04 12:56:03;;;;;;;5.65;0.90;;;17.90;66.60;;;;;;5095325;28;20038;-78
2021/10/04 12:58:33;;;;;;;2.58;0.50;;;18.00;66.50;;;;;;5095349;28;20506;-78
2021/10/04 13:01:11;;;;;;;1.17;0.47;;;18.00;66.60;;;;;;5095320;28;20061;-78
2021/10/04 13:07:03;;;;;;;4.18;0.80;;;18.00;66.20;;;;;;5113574;28;20037;-79
2021/10/04 13:12:57;;;;;;;2.88;0.90;;;18.00;66.50;;;;;;5113420;28;20068;-79
2021/10/04 13:15:22;;;;;;;3.20;0.70;;;18.10;66.10;;;;;;5113455;28;20028;-79
2021/10/04 13:17:48;;;;;;;5.75;1.20;;;18.20;65.80;;;;;;5113345;28;20019;-79
2021/10/04 13:20:14;;;;;;;2.03;0.70;;;18.20;65.10;;;;;;5113222;28;20103;-79
2021/10/04 13:26:06;;;;;;;2.78;0.80;;;18.20;65.60;;;;;;5117594;28;20047;-80